Time;durP1;ratioP1;P1;durP2;ratioP2;P2;SDS_P1;SDS_P2;PMS_P1;PMS_P2;Temp;Humidity;BMP_temperature;BMP_pressure;BME280_temperature;BME280_humidity;BME280_pressure;Samples;Min_cycle;Max_cycle;Signal;HPM_P1;HPM_P2
2021/08/11 00:00:38;;;;;;;2.33;1.58;;;20.20;93.00;;;;;;5111870;28;20053;-76
2021/08/11 00:03:04;;;;;;;12.57;1.70;;;20.30;93.00;;;;;;5111932;28;20106;-75
2021/08/11 00:05:29;;;;;;;1.83;1.08;;;20.30;93.10;;;;;;5111692;28;20085;-77
2021/08/11 00:07:55;;;;;;;4.70;1.45;;;20.30;93.10;;;;;;5093146;28;20019;-76
2021/08/11 00:10:21;;;;;;;4.88;1.60;;;20.20;93.20;;;;;;5111575;28;20076;-76
2021/08/11 00:12:46;;;;;;;5.35;1.50;;;20.20;93.20;;;;;;5092953;28;20515;-76
2021/08/11 00:15:12;;;;;;;5.47;1.30;;;20.20;93.30;;;;;;5111565;28;20024;-76
2021/08/11 00:17:38;;;;;;;3.58;1.85;;;20.10;93.30;;;;;;5111554;28;20023;-76
2021/08/11 00:20:05;;;;;;;5.00;2.05;;;20.20;93.40;;;;;;5111501;28;20035;-74
2021/08/11 00:22:31;;;;;;;3.67;1.25;;;20.10;93.60;;;;;;5092892;28;20027;-75
2021/08/11 00:24:56;;;;;;;6.57;1.67;;;20.10;93.70;;;;;;5093010;28;20092;-75
2021/08/11 00:27:22;;;;;;;4.53;1.90;;;20.10;93.80;;;;;;5093020;28;20031;-75
2021/08/11 00:29:48;;;;;;;3.05;1.50;;;20.10;93.90;;;;;;5091898;28;20024;-76
2021/08/11 00:32:15;;;;;;;3.25;1.75;;;20.00;93.90;;;;;;5111035;28;20063;-75
2021/08/11 00:34:41;;;;;;;4.63;1.58;;;20.00;94.00;;;;;;5111310;28;20055;-75
2021/08/11 00:37:08;;;;;;;3.17;1.70;;;20.00;94.10;;;;;;5092957;28;20074;-75
2021/08/11 00:39:33;;;;;;;4.32;2.03;;;20.00;94.20;;;;;;5111039;28;20027;-75
2021/08/11 00:41:59;;;;;;;4.53;1.17;;;20.00;94.20;;;;;;5110983;28;20446;-76
2021/08/11 00:44:24;;;;;;;4.38;1.48;;;20.00;94.30;;;;;;5092987;28;20032;-75
2021/08/11 00:46:50;;;;;;;3.00;1.58;;;20.00;94.50;;;;;;5110824;28;20035;-76
2021/08/11 00:49:17;;;;;;;4.00;1.73;;;19.90;94.70;;;;;;5111091;28;20392;-76
2021/08/11 00:51:44;;;;;;;7.85;1.70;;;19.90;94.60;;;;;;5092468;28;20020;-76
2021/08/11 00:54:11;;;;;;;8.80;1.73;;;19.90;94.70;;;;;;5110865;28;20070;-76
2021/08/11 00:56:39;;;;;;;6.70;1.52;;;19.90;94.70;;;;;;5092582;28;20020;-74
2021/08/11 00:59:06;;;;;;;2.85;1.60;;;20.00;94.70;;;;;;5110833;28;20034;-76
2021/08/11 01:01:32;;;;;;;5.57;1.92;;;20.00;94.60;;;;;;5110802;28;20018;-76
2021/08/11 01:04:02;;;;;;;3.00;1.38;;;20.00;94.70;;;;;;5110577;28;20077;-76
2021/08/11 01:06:31;;;;;;;3.90;1.60;;;20.00;94.70;;;;;;5092437;28;20567;-76
2021/08/11 01:08:57;;;;;;;3.13;1.92;;;20.00;94.70;;;;;;5110725;28;20044;-77
2021/08/11 01:11:25;;;;;;;5.72;1.70;;;20.00;94.80;;;;;;5092342;28;20497;-75
2021/08/11 01:13:51;;;;;;;5.05;1.35;;;20.00;94.70;;;;;;5092001;28;20061;-76
2021/08/11 01:16:17;;;;;;;6.57;1.70;;;20.00;94.70;;;;;;5092194;28;20441;-75
2021/08/11 01:18:43;;;;;;;3.25;1.50;;;20.00;94.80;;;;;;5110473;28;20050;-76
2021/08/11 01:21:11;;;;;;;2.58;1.17;;;20.00;94.90;;;;;;5092168;28;20576;-76
2021/08/11 01:23:48;;;;;;;3.58;1.60;;;20.00;95.00;;;;;;5091930;28;20447;-76
2021/08/11 01:26:29;;;;;;;3.33;1.45;;;20.00;95.00;;;;;;5091741;28;20043;-76
2021/08/11 01:29:13;;;;;;;5.95;1.92;;;19.90;95.10;;;;;;5110318;28;20567;-76
2021/08/11 01:31:50;;;;;;;3.40;1.35;;;19.90;95.10;;;;;;5110247;28;20446;-76
2021/08/11 01:34:22;;;;;;;2.75;1.67;;;19.90;95.20;;;;;;5109963;28;20492;-76
2021/08/11 01:36:51;;;;;;;4.60;1.70;;;19.90;95.20;;;;;;5110121;28;20062;-76
2021/08/11 01:39:35;;;;;;;2.80;1.67;;;19.80;95.20;;;;;;5110102;28;20403;-76
2021/08/11 01:42:12;;;;;;;3.80;1.50;;;19.90;95.00;;;;;;5108916;28;20027;-75
2021/08/11 01:44:53;;;;;;;6.63;1.45;;;19.90;94.90;;;;;;5109817;28;20027;-76
2021/08/11 01:47:23;;;;;;;4.05;1.77;;;19.90;95.00;;;;;;5092111;28;20047;-76
2021/08/11 01:49:50;;;;;;;3.10;1.52;;;19.90;95.00;;;;;;5091318;28;20162;-76
2021/08/11 01:52:17;;;;;;;5.13;2.08;;;19.90;94.90;;;;;;5091555;28;20400;-75
2021/08/11 01:54:45;;;;;;;4.32;1.20;;;19.90;94.80;;;;;;5091429;28;20036;-75
2021/08/11 01:57:13;;;;;;;4.35;1.50;;;19.90;94.80;;;;;;5091367;28;20019;-75
2021/08/11 01:59:40;;;;;;;4.15;1.60;;;19.90;94.80;;;;;;5091322;28;20028;-75
2021/08/11 02:02:06;;;;;;;2.83;1.17;;;19.80;94.70;;;;;;5109579;28;20027;-75
2021/08/11 02:04:35;;;;;;;5.72;1.63;;;19.80;94.70;;;;;;5091209;28;20112;-75
2021/08/11 02:07:01;;;;;;;5.05;1.75;;;19.80;94.70;;;;;;5091501;28;20031;-75
2021/08/11 02:09:28;;;;;;;3.60;1.63;;;19.80;94.80;;;;;;5091155;28;20043;-76
2021/08/11 02:11:54;;;;;;;2.63;1.80;;;19.80;94.80;;;;;;5091051;28;20492;-75
2021/08/11 02:14:19;;;;;;;5.70;1.67;;;19.80;94.80;;;;;;5109524;28;20508;-75
2021/08/11 02:16:46;;;;;;;3.95;1.65;;;19.80;94.90;;;;;;5091159;28;20051;-75
2021/08/11 02:19:12;;;;;;;4.03;1.48;;;19.70;95.00;;;;;;5091470;28;20038;-75
2021/08/11 02:21:39;;;;;;;2.78;1.67;;;19.70;95.00;;;;;;5091029;28;20606;-75
2021/08/11 02:24:07;;;;;;;4.07;1.80;;;19.70;94.90;;;;;;5090668;28;20700;-75
2021/08/11 02:26:57;;;;;;;4.43;1.80;;;19.70;94.90;;;;;;5090994;28;20033;-75
2021/08/11 02:29:33;;;;;;;4.72;2.03;;;19.70;95.10;;;;;;5090776;28;20036;-74
2021/08/11 02:32:05;;;;;;;;;;;19.60;95.20;;;;;;5091151;28;20023;-75
2021/08/11 02:34:46;;;;;;;4.35;1.60;;;19.60;95.30;;;;;;5108922;28;19931;-75
2021/08/11 02:37:20;;;;;;;2.40;1.50;;;19.60;95.30;;;;;;5109221;28;20019;-74
2021/08/11 02:40:07;;;;;;;5.00;1.58;;;19.50;95.30;;;;;;5109056;28;20024;-74
2021/08/11 02:42:58;;;;;;;3.70;1.27;;;19.50;95.30;;;;;;5107679;28;20084;-74
2021/08/11 02:45:28;;;;;;;4.55;1.70;;;19.50;95.30;;;;;;5093036;28;20096;-75
2021/08/11 02:47:54;;;;;;;4.13;1.63;;;19.50;95.50;;;;;;5090905;28;20024;-74
2021/08/11 02:50:21;;;;;;;9.45;1.60;;;19.50;95.50;;;;;;5091031;28;20130;-79
2021/08/11 02:52:47;;;;;;;3.40;1.63;;;19.50;95.40;;;;;;5111010;28;20023;-74
2021/08/11 02:55:14;;;;;;;3.28;1.60;;;19.50;95.40;;;;;;5094927;28;20059;-75
2021/08/11 02:57:40;;;;;;;7.18;2.25;;;19.50;95.30;;;;;;5113173;28;20103;-74
2021/08/11 03:00:07;;;;;;;5.93;1.63;;;19.50;95.40;;;;;;5094767;28;20127;-75
2021/08/11 03:02:33;;;;;;;9.35;1.77;;;19.40;95.40;;;;;;5094978;28;20042;-76
2021/08/11 03:05:00;;;;;;;4.95;1.70;;;19.50;95.50;;;;;;5112603;28;20044;-74
2021/08/11 03:07:27;;;;;;;3.47;1.48;;;19.40;95.50;;;;;;5094747;28;20448;-75
2021/08/11 03:09:53;;;;;;;5.32;1.65;;;19.40;95.60;;;;;;5112809;28;20084;-75
2021/08/11 03:12:20;;;;;;;5.72;1.40;;;19.40;95.80;;;;;;5112657;28;20429;-74
2021/08/11 03:14:48;;;;;;;4.43;1.73;;;19.30;95.80;;;;;;5094508;28;20020;-74
2021/08/11 03:17:33;;;;;;;4.57;1.80;;;19.30;96.00;;;;;;5113009;28;20019;-75
2021/08/11 03:19:59;;;;;;;9.48;2.17;;;19.30;96.10;;;;;;5112672;28;20027;-75
2021/08/11 03:22:24;;;;;;;3.67;1.70;;;19.30;96.20;;;;;;5094116;28;20028;-75
2021/08/11 03:24:53;;;;;;;6.45;1.90;;;19.30;96.20;;;;;;5094238;28;20058;-75
2021/08/11 03:27:18;;;;;;;4.13;2.35;;;19.30;96.20;;;;;;5112736;28;20020;-74
2021/08/11 03:29:44;;;;;;;2.72;1.55;;;19.30;96.10;;;;;;5094484;28;20030;-74
2021/08/11 03:32:10;;;;;;;3.67;1.83;;;19.30;96.20;;;;;;5094132;28;20020;-74
2021/08/11 03:34:35;;;;;;;6.25;2.15;;;19.40;96.10;;;;;;5093749;28;20507;-75
2021/08/11 03:37:03;;;;;;;3.95;1.77;;;19.40;96.10;;;;;;5112362;28;20373;-74
2021/08/11 03:39:29;;;;;;;3.00;1.67;;;19.40;96.20;;;;;;5112351;28;20032;-75
2021/08/11 03:41:54;;;;;;;4.22;2.03;;;19.50;96.00;;;;;;5094017;28;20026;-75
2021/08/11 03:44:20;;;;;;;3.72;2.30;;;19.50;95.90;;;;;;5112346;28;20036;-75
2021/08/11 03:46:46;;;;;;;4.72;2.00;;;19.60;95.80;;;;;;5112534;28;20507;-76
2021/08/11 03:49:11;;;;;;;4.72;1.85;;;19.60;95.80;;;;;;5094081;28;20428;-75
2021/08/11 03:51:37;;;;;;;5.85;2.58;;;19.70;95.80;;;;;;5093845;28;20089;-75
2021/08/11 03:54:03;;;;;;;5.30;2.03;;;19.70;95.70;;;;;;5093951;28;20484;-74
2021/08/11 03:56:28;;;;;;;3.90;2.17;;;19.80;95.60;;;;;;5094022;28;20511;-75
2021/08/11 03:58:54;;;;;;;4.07;2.38;;;19.90;95.60;;;;;;5093823;28;20035;-74
2021/08/11 04:01:19;;;;;;;4.88;2.08;;;20.00;95.50;;;;;;5111984;28;20027;-75
2021/08/11 04:03:46;;;;;;;4.70;2.40;;;20.10;95.50;;;;;;5092195;28;20039;-74
2021/08/11 04:06:11;;;;;;;5.13;2.25;;;20.10;95.40;;;;;;5111572;28;20511;-75
2021/08/11 04:08:37;;;;;;;3.28;2.10;;;20.20;95.30;;;;;;5093637;28;20034;-75
2021/08/11 04:11:03;;;;;;;9.63;5.13;;;20.30;95.10;;;;;;5111845;28;20760;-75
2021/08/11 04:13:28;;;;;;;11.13;3.92;;;20.40;94.80;;;;;;5093747;28;20035;-75
2021/08/11 04:15:54;;;;;;;11.73;4.15;;;20.40;94.60;;;;;;5093444;28;20023;-75
2021/08/11 04:18:20;;;;;;;7.13;4.57;;;20.50;94.70;;;;;;5111883;28;20027;-74
2021/08/11 04:20:45;;;;;;;9.85;4.63;;;20.50;94.60;;;;;;5093348;28;20031;-74
2021/08/11 04:23:12;;;;;;;18.90;9.10;;;20.60;94.70;;;;;;5111537;28;20059;-74
2021/08/11 04:25:40;;;;;;;38.05;16.73;;;20.70;94.40;;;;;;5111572;28;20039;-75
2021/08/11 04:28:07;;;;;;;67.97;27.15;;;20.80;94.30;;;;;;5093090;28;20122;-74
2021/08/11 04:30:33;;;;;;;73.53;28.20;;;20.80;94.20;;;;;;5093335;28;20047;-74
2021/08/11 04:32:59;;;;;;;74.07;28.75;;;20.90;93.90;;;;;;5093236;28;20103;-75
2021/08/11 04:35:24;;;;;;;88.38;33.35;;;20.90;93.70;;;;;;5093095;28;20078;-75
2021/08/11 04:37:50;;;;;;;76.13;29.17;;;21.10;93.70;;;;;;5111379;28;20124;-75
2021/08/11 04:40:16;;;;;;;70.65;28.80;;;21.10;93.80;;;;;;5093069;28;20032;-75
2021/08/11 04:42:41;;;;;;;63.65;26.75;;;21.20;94.00;;;;;;5110967;28;20055;-75
2021/08/11 04:45:08;;;;;;;57.80;24.45;;;21.20;94.00;;;;;;5111361;28;20042;-75
2021/08/11 04:47:33;;;;;;;47.42;20.77;;;21.40;94.00;;;;;;5092876;28;20027;-75
2021/08/11 04:49:59;;;;;;;41.70;15.93;;;21.50;93.80;;;;;;5092633;28;20450;-74
2021/08/11 04:52:25;;;;;;;43.58;18.40;;;21.60;93.40;;;;;;5111155;28;20031;-76
2021/08/11 04:54:50;;;;;;;50.28;19.73;;;21.80;93.10;;;;;;5111051;28;20027;-75
2021/08/11 04:57:16;;;;;;;44.63;20.48;;;21.90;93.10;;;;;;5092692;28;20411;-75
2021/08/11 04:59:42;;;;;;;48.08;19.00;;;22.00;93.00;;;;;;5092532;28;20024;-75
2021/08/11 05:02:08;;;;;;;32.45;16.92;;;22.10;92.70;;;;;;5092405;28;20496;-75
2021/08/11 05:04:33;;;;;;;34.05;15.90;;;22.20;92.60;;;;;;5092451;28;20091;-75
2021/08/11 05:07:07;;;;;;;35.72;15.27;;;22.30;92.50;;;;;;5092483;28;20484;-75
2021/08/11 05:09:33;;;;;;;30.38;12.13;;;22.30;92.50;;;;;;5110677;28;20051;-75
2021/08/11 05:11:59;;;;;;;22.08;11.68;;;22.40;92.50;;;;;;5110460;28;20042;-74
2021/08/11 05:14:25;;;;;;;24.08;11.73;;;22.40;92.60;;;;;;5092398;28;20019;-75
2021/08/11 05:16:51;;;;;;;24.42;10.13;;;22.50;92.80;;;;;;5092168;28;20035;-75
2021/08/11 05:19:16;;;;;;;24.13;9.95;;;22.60;92.80;;;;;;5092385;28;20027;-74
2021/08/11 05:21:42;;;;;;;21.95;9.27;;;22.70;92.60;;;;;;5092283;28;20727;-75
2021/08/11 05:24:08;;;;;;;21.23;8.38;;;22.90;92.50;;;;;;5091996;28;20138;-75
2021/08/11 05:26:34;;;;;;;21.25;9.50;;;23.20;92.00;;;;;;5110634;28;20023;-75
2021/08/11 05:28:59;;;;;;;24.27;9.27;;;23.40;91.50;;;;;;5110494;28;20023;-77
2021/08/11 05:31:25;;;;;;;19.00;7.57;;;23.70;91.20;;;;;;5110274;28;20031;-75
2021/08/11 05:33:50;;;;;;;19.85;8.73;;;24.00;90.40;;;;;;5091735;28;20501;-74
2021/08/11 05:36:16;;;;;;;17.05;6.38;;;24.30;89.20;;;;;;5110291;28;20596;-75
2021/08/11 05:38:42;;;;;;;12.93;5.63;;;24.50;87.50;;;;;;5110192;28;20020;-75
2021/08/11 05:41:07;;;;;;;15.43;4.95;;;24.70;84.60;;;;;;5109721;28;20115;-75
2021/08/11 05:43:34;;;;;;;11.07;4.85;;;24.90;82.50;;;;;;5092027;28;20028;-75
2021/08/11 05:46:00;;;;;;;10.77;4.18;;;25.10;81.90;;;;;;5109843;28;20142;-74
2021/08/11 05:48:26;;;;;;;17.13;4.20;;;25.30;80.40;;;;;;5110102;28;20027;-74
2021/08/11 05:50:51;;;;;;;11.43;3.92;;;25.70;79.20;;;;;;5110014;28;20084;-75
2021/08/11 05:53:17;;;;;;;13.80;4.53;;;26.30;77.70;;;;;;5091628;28;20208;-75
2021/08/11 05:55:42;;;;;;;11.27;4.18;;;26.80;75.00;;;;;;5109854;28;20043;-78
2021/08/11 05:58:10;;;;;;;14.93;4.13;;;27.20;72.90;;;;;;5109691;28;20103;-75
2021/08/11 06:00:36;;;;;;;11.75;3.92;;;27.50;70.30;;;;;;5109800;28;20031;-75
2021/08/11 06:03:02;;;;;;;7.03;3.90;;;27.80;68.60;;;;;;5091526;28;20168;-75
2021/08/11 06:05:28;;;;;;;8.23;4.00;;;28.10;67.40;;;;;;5091278;28;20035;-76
2021/08/11 06:07:53;;;;;;;12.23;4.03;;;28.50;65.50;;;;;;5109752;28;20076;-76
2021/08/11 06:10:19;;;;;;;11.48;3.63;;;29.00;63.80;;;;;;5109558;28;20023;-75
2021/08/11 06:12:47;;;;;;;5.78;3.20;;;29.80;61.00;;;;;;5091224;28;20034;-76
2021/08/11 06:15:12;;;;;;;7.22;3.35;;;30.60;57.80;;;;;;5109572;28;20034;-75
2021/08/11 06:17:45;;;;;;;7.97;3.28;;;31.50;55.70;;;;;;5109396;28;20024;-76
2021/08/11 06:20:13;;;;;;;8.68;3.08;;;32.20;52.30;;;;;;5109473;28;20483;-77
2021/08/11 06:22:39;;;;;;;4.78;2.80;;;32.70;50.90;;;;;;5091098;28;20506;-76
2021/08/11 06:25:06;;;;;;;11.57;2.60;;;33.30;49.10;;;;;;5108965;28;20036;-76
2021/08/11 06:27:32;;;;;;;6.70;2.92;;;33.80;47.10;;;;;;5090458;28;20035;-76
2021/08/11 06:29:57;;;;;;;6.90;2.53;;;34.10;45.50;;;;;;5109094;28;20031;-75
2021/08/11 06:32:23;;;;;;;12.73;2.80;;;34.60;44.80;;;;;;5109309;28;20492;-76
2021/08/11 06:34:49;;;;;;;7.22;2.10;;;35.00;43.20;;;;;;5090730;28;20048;-76
2021/08/11 06:37:14;;;;;;;4.97;2.67;;;35.40;42.30;;;;;;5109287;28;20024;-76
2021/08/11 06:39:40;;;;;;;15.43;3.17;;;35.70;41.20;;;;;;5109159;28;20031;-76
2021/08/11 06:42:06;;;;;;;9.65;2.28;;;35.90;41.20;;;;;;5109337;28;20065;-76
2021/08/11 06:44:31;;;;;;;6.15;2.40;;;36.00;41.00;;;;;;5090813;28;20024;-76
2021/08/11 06:46:57;;;;;;;12.25;2.47;;;36.10;40.10;;;;;;5109079;28;20400;-76
2021/08/11 06:49:22;;;;;;;6.55;2.30;;;36.10;40.60;;;;;;5109010;28;20027;-76
2021/08/11 06:51:48;;;;;;;5.47;2.03;;;36.50;40.20;;;;;;5108891;28;20032;-75
2021/08/11 06:54:14;;;;;;;3.55;2.20;;;36.80;39.20;;;;;;5109057;28;20077;-76
2021/08/11 06:56:40;;;;;;;6.47;2.08;;;37.10;38.80;;;;;;5090703;28;20081;-76
2021/08/11 06:59:07;;;;;;;3.35;2.17;;;37.20;38.70;;;;;;5090594;28;20499;-76
2021/08/11 07:01:33;;;;;;;7.88;2.47;;;37.30;38.40;;;;;;5090913;28;20034;-76
2021/08/11 07:03:59;;;;;;;5.80;2.03;;;37.20;38.60;;;;;;5091048;28;20069;-76
2021/08/11 07:06:25;;;;;;;10.43;2.17;;;37.10;39.50;;;;;;5090489;28;20046;-76
2021/08/11 07:08:51;;;;;;;3.53;1.70;;;37.30;39.10;;;;;;5090850;28;20023;-77
2021/08/11 07:11:17;;;;;;;9.82;2.70;;;37.40;38.80;;;;;;5090810;28;20033;-77
2021/08/11 07:13:42;;;;;;;8.18;2.28;;;37.20;38.70;;;;;;5108610;28;20081;-76
2021/08/11 07:16:08;;;;;;;7.43;1.92;;;37.10;39.20;;;;;;5090364;28;20020;-77
2021/08/11 07:18:34;;;;;;;5.40;2.03;;;37.30;39.10;;;;;;5108737;28;20031;-76
2021/08/11 07:20:59;;;;;;;5.93;2.05;;;37.80;38.60;;;;;;5108649;28;20024;-77
2021/08/11 07:23:25;;;;;;;7.95;2.42;;;38.00;37.80;;;;;;5108625;28;20114;-76
2021/08/11 07:25:51;;;;;;;6.22;2.20;;;37.90;38.40;;;;;;5090063;28;20031;-77
2021/08/11 07:28:16;;;;;;;4.28;1.95;;;38.10;38.20;;;;;;5108564;28;20032;-76
2021/08/11 07:30:43;;;;;;;8.40;1.77;;;38.30;38.50;;;;;;5090498;28;20035;-76
2021/08/11 07:33:09;;;;;;;3.42;1.70;;;38.30;37.70;;;;;;5108423;28;20099;-76
2021/08/11 07:35:36;;;;;;;6.63;1.80;;;38.40;37.60;;;;;;5108578;28;20118;-74
2021/08/11 07:38:03;;;;;;;3.50;2.70;;;38.90;36.10;;;;;;5090618;28;20580;-76
2021/08/11 07:40:29;;;;;;;7.45;2.42;;;38.90;34.10;;;;;;5093974;28;20019;-76
2021/08/11 07:42:55;;;;;;;3.75;1.75;;;38.90;33.80;;;;;;5112219;28;20020;-76
2021/08/11 07:45:22;;;;;;;6.60;2.05;;;39.20;33.50;;;;;;5093808;28;20052;-76
2021/08/11 07:47:51;;;;;;;5.97;2.10;;;39.20;33.00;;;;;;5093901;28;20125;-77
2021/08/11 07:50:19;;;;;;;3.80;2.00;;;39.70;30.60;;;;;;5093784;28;20024;-77
2021/08/11 07:52:45;;;;;;;3.78;1.85;;;39.60;30.80;;;;;;5112072;28;20030;-76
2021/08/11 07:55:11;;;;;;;5.55;1.75;;;39.30;30.80;;;;;;5112107;28;20016;-76
2021/08/11 07:57:38;;;;;;;3.45;2.83;;;38.70;32.20;;;;;;5111841;28;20039;-76
2021/08/11 08:00:05;;;;;;;4.30;2.00;;;38.40;31.80;;;;;;5093227;28;20027;-76
2021/08/11 08:02:31;;;;;;;4.60;2.30;;;38.70;31.80;;;;;;5111710;28;20112;-76
2021/08/11 08:04:56;;;;;;;5.90;2.67;;;39.00;31.50;;;;;;5111765;28;20086;-76
2021/08/11 08:07:22;;;;;;;3.20;1.98;;;38.70;30.60;;;;;;5111569;28;20031;-76
2021/08/11 08:09:48;;;;;;;2.60;1.67;;;38.30;30.80;;;;;;5093092;28;20115;-78
2021/08/11 08:12:13;;;;;;;5.35;2.00;;;38.30;30.90;;;;;;5111497;28;20024;-76
2021/08/11 08:14:39;;;;;;;5.00;2.60;;;38.60;29.80;;;;;;5111518;28;20035;-77
2021/08/11 08:17:05;;;;;;;2.90;1.80;;;38.20;30.00;;;;;;5111686;28;20036;-76
2021/08/11 08:19:30;;;;;;;2.83;1.80;;;38.20;30.10;;;;;;5111558;28;20027;-76
2021/08/11 08:21:56;;;;;;;4.03;1.85;;;38.70;29.20;;;;;;5111262;28;20028;-76
2021/08/11 08:24:22;;;;;;;2.83;1.40;;;38.60;30.30;;;;;;5093102;28;20753;-77
2021/08/11 08:26:48;;;;;;;2.38;1.80;;;38.70;29.10;;;;;;5093089;28;20036;-76
2021/08/11 08:29:14;;;;;;;2.70;1.88;;;38.50;28.50;;;;;;5111338;28;20040;-76
2021/08/11 08:31:39;;;;;;;4.18;1.55;;;37.80;28.50;;;;;;5092990;28;20031;-77
2021/08/11 08:34:06;;;;;;;4.50;1.52;;;37.50;29.50;;;;;;5110963;28;20054;-76
2021/08/11 08:36:32;;;;;;;3.60;2.10;;;38.10;30.50;;;;;;5111342;28;20365;-76
2021/08/11 08:38:58;;;;;;;4.60;1.67;;;38.90;30.00;;;;;;5111187;28;20369;-77
2021/08/11 08:41:24;;;;;;;2.45;1.33;;;39.10;29.10;;;;;;5092597;28;20030;-76
2021/08/11 08:43:49;;;;;;;3.65;1.20;;;39.30;27.80;;;;;;5092581;28;20028;-76
2021/08/11 08:46:17;;;;;;;6.45;1.35;;;39.50;27.80;;;;;;5092710;28;20773;-77
2021/08/11 08:48:43;;;;;;;2.65;1.25;;;39.70;27.70;;;;;;5111002;28;20057;-76
2021/08/11 08:51:14;;;;;;;3.33;1.50;;;39.80;28.20;;;;;;5092485;28;20035;-78
2021/08/11 08:53:41;;;;;;;5.72;1.52;;;40.10;28.00;;;;;;5110796;28;20400;-77
2021/08/11 08:56:07;;;;;;;1.67;1.27;;;40.00;28.50;;;;;;5110617;28;20030;-76
2021/08/11 08:58:32;;;;;;;2.38;1.42;;;40.30;27.90;;;;;;5092699;28;20031;-76
2021/08/11 09:00:58;;;;;;;3.90;1.20;;;40.50;27.40;;;;;;5110662;28;20376;-76
2021/08/11 09:03:24;;;;;;;2.53;1.15;;;40.20;27.40;;;;;;5092302;28;20503;-76
2021/08/11 09:05:49;;;;;;;2.15;1.35;;;40.40;27.20;;;;;;5110348;28;20032;-76
2021/08/11 09:08:15;;;;;;;2.78;1.27;;;40.60;27.00;;;;;;5091918;28;20016;-77
2021/08/11 09:10:41;;;;;;;4.60;1.25;;;40.60;27.10;;;;;;5092361;28;20492;-76
2021/08/11 09:13:14;;;;;;;3.10;1.58;;;40.90;26.80;;;;;;5110423;28;20059;-76
2021/08/11 09:15:42;;;;;;;2.38;1.40;;;41.00;26.60;;;;;;5091976;28;20028;-76
2021/08/11 09:18:18;;;;;;;3.78;1.30;;;40.90;26.60;;;;;;5110131;28;20016;-76
2021/08/11 09:21:09;;;;;;;5.70;1.40;;;40.60;26.60;;;;;;5091868;28;20027;-77
2021/08/11 09:23:46;;;;;;;2.28;1.48;;;40.40;27.40;;;;;;5091940;28;20031;-76
2021/08/11 09:26:17;;;;;;;1.52;1.13;;;40.60;26.80;;;;;;5110045;28;20139;-77
2021/08/11 09:28:44;;;;;;;1.83;1.30;;;40.70;26.40;;;;;;5091918;28;20482;-77
2021/08/11 09:31:19;;;;;;;1.88;1.23;;;40.70;25.90;;;;;;5091667;28;20068;-75
2021/08/11 09:33:48;;;;;;;;;;;40.60;25.90;;;;;;5110221;28;20083;-77
2021/08/11 09:36:13;;;;;;;1.73;1.38;;;40.50;26.80;;;;;;5091540;28;19912;-77
2021/08/11 09:38:59;;;;;;;3.25;1.27;;;40.40;26.70;;;;;;5109727;28;20027;-77
2021/08/11 09:41:25;;;;;;;5.28;1.38;;;40.70;26.50;;;;;;5091346;28;20024;-77
2021/08/11 09:44:10;;;;;;;3.58;1.40;;;40.60;26.70;;;;;;5109764;28;20533;-76
2021/08/11 09:46:38;;;;;;;1.92;1.40;;;40.50;26.70;;;;;;5091373;28;20043;-77
2021/08/11 09:49:21;;;;;;;4.30;1.50;;;40.60;27.10;;;;;;5109756;28;20504;-76
2021/08/11 09:52:01;;;;;;;3.63;1.55;;;40.70;26.70;;;;;;5091170;28;20073;-76
2021/08/11 09:54:29;;;;;;;2.38;1.48;;;40.90;26.90;;;;;;5109605;28;20012;-77
2021/08/11 09:56:55;;;;;;;2.65;1.50;;;41.10;27.20;;;;;;5109597;28;20031;-77
2021/08/11 09:59:21;;;;;;;2.78;1.45;;;41.10;27.50;;;;;;5109298;28;20019;-77
2021/08/11 10:01:47;;;;;;;2.35;1.60;;;41.20;27.40;;;;;;5108614;28;20449;-76
2021/08/11 10:04:14;;;;;;;2.63;1.40;;;40.70;28.00;;;;;;5091209;28;20119;-77
2021/08/11 10:06:45;;;;;;;2.60;1.10;;;40.10;27.50;;;;;;5109412;28;20522;-76
2021/08/11 10:09:19;;;;;;;1.38;1.00;;;39.70;27.10;;;;;;5091257;28;20026;-76
2021/08/11 10:11:50;;;;;;;3.90;1.00;;;39.60;27.30;;;;;;5090974;28;20031;-76
2021/08/11 10:14:18;;;;;;;2.35;0.90;;;39.70;26.70;;;;;;5109051;28;21007;-76
2021/08/11 10:16:45;;;;;;;2.53;1.13;;;39.40;26.20;;;;;;5090902;28;20138;-76
2021/08/11 10:19:12;;;;;;;2.08;1.25;;;39.10;26.40;;;;;;5109453;28;20023;-76
2021/08/11 10:21:46;;;;;;;3.60;1.42;;;38.40;27.00;;;;;;5109097;28;20031;-76
2021/08/11 10:24:13;;;;;;;2.17;1.23;;;38.00;27.10;;;;;;5108955;28;20023;-76
2021/08/11 10:26:39;;;;;;;2.00;1.00;;;37.00;28.10;;;;;;5090880;28;20061;-75
2021/08/11 10:29:06;;;;;;;3.05;1.15;;;36.50;29.30;;;;;;5090705;28;20028;-76
2021/08/11 10:31:32;;;;;;;3.05;1.30;;;35.90;29.90;;;;;;5090759;28;20028;-76
2021/08/11 10:34:01;;;;;;;3.40;1.42;;;35.70;30.70;;;;;;5090311;28;20043;-76
2021/08/11 10:36:31;;;;;;;3.60;1.50;;;35.50;31.20;;;;;;5109074;28;20055;-75
2021/08/11 10:39:00;;;;;;;5.30;1.13;;;35.20;31.00;;;;;;5108882;28;20039;-76
2021/08/11 10:41:34;;;;;;;4.78;1.55;;;35.00;31.40;;;;;;5108896;28;20034;-76
2021/08/11 10:44:04;;;;;;;3.65;1.40;;;34.80;31.80;;;;;;5108673;28;20020;-76
2021/08/11 10:46:44;;;;;;;3.83;1.23;;;34.50;31.40;;;;;;5108832;28;20032;-77
2021/08/11 10:49:16;;;;;;;2.20;1.48;;;34.40;32.40;;;;;;5108968;28;20016;-76
2021/08/11 10:51:46;;;;;;;3.08;1.52;;;34.20;31.80;;;;;;5090515;28;20035;-75
2021/08/11 10:54:12;;;;;;;2.03;1.38;;;34.20;31.40;;;;;;5109017;28;20019;-75
2021/08/11 10:56:55;;;;;;;1.98;1.40;;;34.00;31.50;;;;;;5108915;28;20122;-76
2021/08/11 10:59:28;;;;;;;9.18;2.05;;;34.00;32.20;;;;;;5108790;28;20035;-76
2021/08/11 11:01:55;;;;;;;2.33;1.33;;;33.80;32.20;;;;;;5108548;28;20028;-75
2021/08/11 11:04:37;;;;;;;3.05;1.80;;;33.60;33.00;;;;;;5090200;28;20034;-76
2021/08/11 11:07:12;;;;;;;1.75;1.30;;;33.50;32.80;;;;;;5108514;28;20046;-75
2021/08/11 11:09:39;;;;;;;3.37;1.70;;;33.40;33.40;;;;;;5108456;28;20124;-75
2021/08/11 11:12:17;;;;;;;4.57;1.77;;;33.40;33.60;;;;;;5090075;28;20083;-75
2021/08/11 11:14:55;;;;;;;2.10;1.33;;;33.30;34.30;;;;;;5093605;28;20032;-77
2021/08/11 11:17:31;;;;;;;3.30;1.50;;;33.30;34.90;;;;;;5094210;28;20072;-74
2021/08/11 11:20:07;;;;;;;3.83;1.80;;;33.30;34.90;;;;;;5094049;28;20526;-76
2021/08/11 11:22:39;;;;;;;5.50;1.33;;;33.30;34.30;;;;;;5094153;28;20055;-76
2021/08/11 11:25:09;;;;;;;4.80;1.73;;;33.30;35.30;;;;;;5094023;28;20046;-76
2021/08/11 11:27:44;;;;;;;2.80;1.58;;;33.20;35.80;;;;;;5094400;28;20051;-76
2021/08/11 11:30:30;;;;;;;2.45;1.42;;;33.20;35.90;;;;;;5112666;28;20349;-76
2021/08/11 11:33:35;;;;;;;2.85;1.63;;;33.20;35.40;;;;;;5112457;28;20407;-75
2021/08/11 11:36:21;;;;;;;2.45;1.60;;;33.20;35.50;;;;;;5093566;28;20142;-76
2021/08/11 11:39:07;;;;;;;1.95;1.40;;;33.20;35.90;;;;;;5094010;28;20027;-76
2021/08/11 11:41:34;;;;;;;2.40;1.52;;;32.90;34.70;;;;;;5093850;28;20027;-75
2021/08/11 11:44:37;;;;;;;7.60;1.65;;;32.80;35.60;;;;;;5111854;28;20027;-75
2021/08/11 11:47:03;;;;;;;2.80;1.55;;;32.70;35.80;;;;;;5093884;28;20023;-76
2021/08/11 11:49:29;;;;;;;8.95;1.33;;;32.70;37.10;;;;;;5111977;28;20103;-75
2021/08/11 11:51:56;;;;;;;3.13;1.30;;;32.80;36.90;;;;;;5093930;28;20733;-76
2021/08/11 11:54:22;;;;;;;4.22;1.73;;;32.90;36.90;;;;;;5112143;28;20077;-76
2021/08/11 11:56:50;;;;;;;5.32;1.80;;;33.00;37.00;;;;;;5093595;28;20031;-77
2021/08/11 11:59:17;;;;;;;3.33;1.38;;;33.00;36.60;;;;;;5093439;28;20028;-76
2021/08/11 12:01:44;;;;;;;3.75;1.65;;;33.00;37.30;;;;;;5093730;28;20024;-75
2021/08/11 12:04:10;;;;;;;2.28;1.45;;;33.00;37.30;;;;;;5093340;28;20038;-76
2021/08/11 12:06:37;;;;;;;3.90;1.50;;;33.10;37.30;;;;;;5093261;28;20046;-75
2021/08/11 12:09:03;;;;;;;5.30;1.67;;;33.20;36.70;;;;;;5093657;28;20028;-77
2021/08/11 12:11:29;;;;;;;2.20;1.27;;;33.30;36.40;;;;;;5093326;28;20123;-76
2021/08/11 12:13:55;;;;;;;3.25;1.38;;;33.40;36.00;;;;;;5111819;28;20077;-76
2021/08/11 12:16:22;;;;;;;3.35;1.70;;;33.40;37.00;;;;;;5111778;28;20024;-76
2021/08/11 12:18:50;;;;;;;3.00;1.55;;;33.40;36.70;;;;;;5093100;28;20023;-76
2021/08/11 12:21:20;;;;;;;1.95;1.23;;;33.40;36.00;;;;;;5093159;28;20064;-76
2021/08/11 12:23:49;;;;;;;3.30;1.40;;;33.40;36.10;;;;;;5092814;28;20511;-76
2021/08/11 12:26:16;;;;;;;2.67;1.20;;;33.30;35.80;;;;;;5091651;28;20027;-76
2021/08/11 12:28:47;;;;;;;2.22;1.60;;;33.20;36.20;;;;;;5111343;28;20019;-76
2021/08/11 12:31:16;;;;;;;3.63;1.67;;;33.20;36.40;;;;;;5092916;28;20023;-75
2021/08/11 12:33:44;;;;;;;2.35;1.50;;;33.10;36.10;;;;;;5089321;28;20048;-76
2021/08/11 12:36:20;;;;;;;1.80;1.20;;;32.80;36.10;;;;;;5102807;28;20070;-76
2021/08/11 12:39:13;;;;;;;5.28;1.60;;;32.80;36.90;;;;;;5111096;28;20023;-76
2021/08/11 12:41:40;;;;;;;7.03;1.60;;;32.80;36.50;;;;;;5111058;28;20104;-75
2021/08/11 12:44:15;;;;;;;3.50;1.48;;;32.80;36.20;;;;;;5092491;28;20566;-75
2021/08/11 12:46:44;;;;;;;6.90;1.58;;;32.90;36.80;;;;;;5092325;28;20122;-76
2021/08/11 12:49:25;;;;;;;4.53;1.90;;;32.90;36.90;;;;;;5092618;28;20027;-76
2021/08/11 12:52:04;;;;;;;4.25;1.45;;;32.90;38.20;;;;;;5110640;28;20031;-75